Pagrindinis puslapis
METAR-TAF:

METAR-TAF

Oro uostai :

Juveskiulė, Suomija

platuma: 62-24N, ilguma: 025-41E, Aukštis: 141 m

Dabartinis oras

Ataskaita buvo paskelbta 20 minutes, ne 20:50 UTC
Vėjas 4 kt iš Pietų, svyruoja nuo Pietryčių ir Pietų/Pietvakarių
Temperatūra 17°C
Drėgmė 59%
Slėgis 1018 hPa
Matomumas 10 km arba daugiau
nėra debesų žemiau 1500 m ir nėra kamuolinių lietaus debesų

METAR: EFJY 172050Z AUTO 17004KT 140V200 CAVOK 17/09 Q1018

Laikas: 00:10 (21:10 UTC)

Prognozė

Ataskaita buvo paskelbta 37 minutes, ne 20:33 UTC
Prognozė galioja nuo 17 metu 21 UTC su 18 metu 21 UTC
Vėjas 6 kt iš Pietų
Matomumas 10 km arba daugiau
nėra debesų žemiau 1500 m ir nėra kamuolinių lietaus debesų
Tikimybė 30%
nuo 18 metu 13 UTC su 18 metu 18 UTC
Vėjas 15 kt iš Pietų/Pietvakarių su gūsio iki 25 kt

TAF: EFJY 172033Z 1721/1821 19006KT CAVOK PROB30 1813/1818 20015G25KT

Orai ataskaitas ir orų prognozės (METAR, TAF).

turimą stotys yra geltonos ir raudonos taškus žemėlapyje.

Perkelti pele per norėdami pamatyti stoties vardą.

Tada spustelėkite, norėdami matyti oro stebėjimo ir prognozės.

Norėdami pakeisti žemėlapį: spustelėkite ant žalios mygtukų su juodo kryžiaus žemyn,; žalią mygtuką su brūkšneliu, jei norite nutolinti; arba žalių rodyklių gretimoms žemėlapius.


METAR-TAF: